Weather History for Marysville, OH

Change the Weather History Date:

Friday, September 6, 2013

  Actual Average (KDLZ) Record (KDLZ)
Temperature  
Mean Temperature 58 °F -  
Max Temperature 75 °F 80 °F 100 °F (1954)
Min Temperature 42 °F 55 °F 40 °F (1962)
Degree Days  
Heating Degree Days 6    
Growing Degree Days 8 (Base 50)    
Moisture  
Dew Point 43 °F    
Average Humidity 66    
Maximum Humidity 96    
Minimum Humidity 21    
Precipitation  
Precipitation 0.00 in - - ()
Sea Level Pressure  
Sea Level Pressure 30.22 in    
Wind  
Wind Speed 1 mph (ESE)    
Max Wind Speed 6 mph    
Max Gust Speed -    
Visibility 9 miles    
Events      
Averages and records for this station are not official NWS values.
T = Trace of Precipitation, MM = Missing Value Source: NWS Daily Summary

Daily Weather History Graph

Daily Weather History Graph

Search for Another Location

Airport:

Trip Planner

Search our weather history database for the weather conditions in past years. The results will help you decide how hot, cold, wet, or windy it might be!

Date:

Astronomy

Sep. 06, 2013 Rise Set
Actual Time 7:05 AM EDT 7:56 PM EDT
Civil Twilight 6:38 AM EDT 8:24 PM EDT
Nautical Twilight 6:05 AM EDT 8:56 PM EDT
Astronomical Twilight 5:31 AM EDT 9:30 PM EDT
Moon 8:17 AM EDT (9/6) 8:20 PM EDT (9/6)
Length of Visible Light 13h 45m
Length of Day
12h 50m
New Moon, 1% of the Moon is Illuminated
Sep 6
New Moon
Sep 12
First Quarter
Sep 19
Full
Sep 26
Last Quarter
Oct 4
New

Hourly Weather History & Observations

Time (EDT) Temp. Dew Point Humidity Pressure Visibility Wind Dir Wind Speed Gust Speed Precip Events Conditions
12:13 AM 53.4 °F 46.9 °F 79% 30.24 in 10.0 mi Calm Calm - N/A   Clear
12:34 AM 53.4 °F 46.9 °F 79% 30.24 in 10.0 mi Calm Calm - N/A   Clear
12:53 AM 53.6 °F 46.8 °F 78% 30.25 in 10.0 mi ENE 3.5 mph - N/A   Clear
1:13 AM 51.8 °F 46.4 °F 82% 30.25 in 10.0 mi ENE 3.5 mph - N/A   Clear
1:34 AM 49.1 °F 45.0 °F 86% 30.26 in 10.0 mi Calm Calm - N/A   Clear
1:53 AM 47.8 °F 45.0 °F 90% 30.26 in 10.0 mi Calm Calm - N/A   Clear
2:13 AM 46.4 °F 44.1 °F 92% 30.25 in 10.0 mi Calm Calm - N/A   Clear
2:34 AM 46.4 °F 44.1 °F 92% 30.25 in 10.0 mi Calm Calm - N/A   Clear
2:53 AM 46.8 °F 44.2 °F 91% 30.26 in 10.0 mi Calm Calm - N/A   Clear
3:13 AM 45.9 °F 43.5 °F 92% 30.26 in 10.0 mi Calm Calm - N/A   Clear
3:34 AM 44.8 °F 42.8 °F 93% 30.26 in 10.0 mi Calm Calm - N/A   Clear
3:53 AM 45.1 °F 43.0 °F 92% 30.26 in 10.0 mi Calm Calm - N/A   Clear
4:13 AM 46.0 °F 44.2 °F 93% 30.26 in 10.0 mi Calm Calm - N/A   Clear
4:34 AM 44.1 °F 42.3 °F 93% 30.26 in 2.5 mi Calm Calm - N/A   Clear
4:53 AM 43.7 °F 41.9 °F 93% 30.26 in 1.0 mi Calm Calm - N/A   Unknown
5:13 AM 43.7 °F 41.9 °F 93% 30.27 in 4.0 mi Calm Calm - N/A   Clear
5:33 AM 43.5 °F 41.7 °F 93% 30.27 in 0.8 mi Calm Calm - N/A   Unknown
5:53 AM 43.0 °F 41.2 °F 93% 30.28 in 10.0 mi Calm Calm - N/A   Clear
6:13 AM 43.2 °F 41.5 °F 94% 30.27 in 10.0 mi Calm Calm - N/A   Clear
6:33 AM 43.2 °F 41.9 °F 95% 30.28 in 0.2 mi Calm Calm - N/A   Unknown
6:54 AM 43.0 °F 41.4 °F 94% 30.28 in 3.0 mi Calm Calm - N/A   Clear
7:13 AM 43.7 °F 42.3 °F 95% 30.28 in 1.0 mi Calm Calm - N/A   Unknown
7:33 AM 42.8 °F 41.7 °F 96% 30.28 in 0.5 mi Calm Calm - N/A   Unknown
7:54 AM 45.1 °F 43.7 °F 95% 30.28 in 5.0 mi Calm Calm - N/A   Clear
8:13 AM 48.7 °F 47.3 °F 95% 30.29 in 10.0 mi Calm Calm - N/A   Clear
8:33 AM 52.3 °F 50.7 °F 94% 30.29 in 10.0 mi Calm Calm - N/A   Clear
8:54 AM 54.7 °F 49.5 °F 83% 30.29 in 10.0 mi Calm Calm - N/A   Clear
9:13 AM 56.3 °F 48.7 °F 76% 30.29 in 10.0 mi East 3.5 mph - N/A   Clear
9:33 AM 58.5 °F 49.3 °F 72% 30.28 in 10.0 mi East 3.5 mph - N/A   Clear
9:54 AM 60.8 °F 50.0 °F 68% 30.28 in 10.0 mi SE 4.6 mph - N/A   Clear
10:13 AM 61.7 °F 49.5 °F 64% 30.28 in 10.0 mi ESE 4.6 mph - N/A   Clear
10:33 AM 62.8 °F 49.1 °F 61% 30.28 in 10.0 mi SSE 4.6 mph - N/A   Clear
10:54 AM 64.2 °F 46.8 °F 53% 30.28 in 10.0 mi Calm Calm - N/A   Clear
11:14 AM 65.7 °F 45.7 °F 48% 30.27 in 10.0 mi SSW 3.5 mph - N/A   Clear
11:33 AM 66.4 °F 43.9 °F 44% 30.27 in 10.0 mi Calm Calm - N/A   Clear
11:54 AM 67.8 °F 42.8 °F 40% 30.27 in 10.0 mi ESE 3.5 mph - N/A   Clear
12:13 PM 68.0 °F 41.2 °F 38% 30.26 in 10.0 mi East 3.5 mph - N/A   Clear
12:33 PM 69.4 °F 40.8 °F 35% 30.26 in 10.0 mi East 5.8 mph - N/A   Clear
12:54 PM 70.7 °F 38.5 °F 31% 30.25 in 10.0 mi SE 4.6 mph - N/A   Clear
1:13 PM 71.1 °F 37.9 °F 30% 30.24 in 10.0 mi ESE 5.8 mph - N/A   Clear
1:33 PM 72.0 °F 32.7 °F 24% 30.24 in 10.0 mi East 3.5 mph - N/A   Clear
1:54 PM 72.9 °F 36.9 °F 27% 30.23 in 10.0 mi SE 3.5 mph - N/A   Clear
2:13 PM 73.0 °F 35.2 °F 25% 30.22 in 10.0 mi Calm Calm - N/A   Clear
2:33 PM 74.1 °F 32.5 °F 22% 30.22 in 10.0 mi ESE 5.8 mph - N/A   Clear
2:54 PM 73.6 °F 32.0 °F 22% 30.21 in 10.0 mi Calm Calm - N/A   Clear
3:13 PM 74.5 °F 32.4 °F 21% 30.20 in 10.0 mi Calm Calm - N/A   Clear
3:33 PM 75.2 °F 35.2 °F 23% 30.19 in 10.0 mi East 3.5 mph - N/A   Clear
3:54 PM 74.8 °F 35.4 °F 24% 30.18 in 10.0 mi East 4.6 mph - N/A   Clear
4:13 PM 74.7 °F 35.2 °F 24% 30.18 in 10.0 mi Calm Calm - N/A   Clear
4:33 PM 75.2 °F 35.2 °F 23% 30.17 in 10.0 mi ENE 5.8 mph - N/A   Clear
4:54 PM 75.4 °F 36.9 °F 25% 30.17 in 10.0 mi NNE 3.5 mph - N/A   Clear
5:13 PM 74.8 °F 37.4 °F 26% 30.17 in 10.0 mi East 3.5 mph - N/A   Clear
5:33 PM 75.0 °F 38.8 °F 27% 30.17 in 10.0 mi Calm Calm - N/A   Clear
5:53 PM 74.5 °F 38.3 °F 27% 30.16 in 10.0 mi Calm Calm - N/A   Clear
6:13 PM 73.4 °F 38.7 °F 28% 30.16 in 10.0 mi Calm Calm - N/A   Clear
6:33 PM 73.6 °F 43.9 °F 34% 30.16 in 10.0 mi ESE 3.5 mph - N/A   Clear
6:53 PM 71.1 °F 44.6 °F 39% 30.16 in 10.0 mi Calm Calm - N/A   Clear
7:14 PM 69.1 °F 44.1 °F 40% 30.15 in 10.0 mi Calm Calm - N/A   Clear
7:34 PM 65.3 °F 49.3 °F 56% 30.15 in 10.0 mi Calm Calm - N/A   Clear
7:53 PM 60.8 °F 52.3 °F 74% 30.15 in 10.0 mi Calm Calm - N/A   Clear
8:14 PM 57.2 °F 51.3 °F 81% 30.14 in 7.0 mi Calm Calm - N/A   Clear
8:34 PM 55.6 °F 50.4 °F 83% 30.15 in 10.0 mi Calm Calm - N/A   Clear
8:53 PM 55.4 °F 50.5 °F 84% 30.16 in 10.0 mi Calm Calm - N/A   Clear
9:14 PM 53.2 °F 49.5 °F 87% 30.16 in 10.0 mi Calm Calm - N/A   Clear
9:34 PM 52.2 °F 48.0 °F 86% 30.15 in 10.0 mi Calm Calm - N/A   Clear
9:53 PM 52.0 °F 47.7 °F 85% 30.15 in 10.0 mi Calm Calm - N/A   Clear
10:14 PM 51.4 °F 47.1 °F 85% 30.15 in 10.0 mi Calm Calm - N/A   Clear
10:34 PM 52.2 °F 47.3 °F 83% 30.15 in 10.0 mi Calm Calm - N/A   Clear
10:53 PM 50.4 °F 46.8 °F 87% 30.15 in 10.0 mi Calm Calm - N/A   Clear
11:14 PM 50.7 °F 46.8 °F 86% 30.14 in 10.0 mi Calm Calm - N/A   Clear
11:34 PM 49.3 °F 45.5 °F 87% 30.14 in 10.0 mi Calm Calm - N/A   Clear
11:53 PM 51.8 °F 46.9 °F 83% 30.13 in 10.0 mi Calm Calm - N/A   Clear